Airfield :
LOGIN :

Register | Disclaimer

   EN    FR    IT 

 










Legend :    VFR   Marginal VFR   IFR   Intensive IFR   Very Intensive IFR
Visi :
Ceiling :
>= 8 km
>= 3000ft
5 to 8 km
1000 to 3000 ft
1500m to 5 km
500 to 1000 ft
800 to 1500m
200 to 500 ft
< 800m
< 200 ft
Symbols :   Thunderstorms  Fog  Heavy snow  Heavy precipitations  Wind > 20 kt
SIGMETs :     Misc.  Thunderstorms  Icing  Turbulence  Mountain Waves  Volcanic Ashes






- Airport Elevation : 359 ft
- IATA code : BVA


LFOB - Beauvais

CURRENT METAR :
  • 070400Z AUTO 03003KT CAVOK 14/10 Q1018 NOSIG

EXPIRED METARs :
  • 070330Z AUTO 34003KT CAVOK 13/10 Q1018 NOSIG
  • 070300Z AUTO 36002KT CAVOK 14/10 Q1018 NOSIG
  • 070230Z AUTO 35001KT CAVOK 14/10 Q1018 NOSIG
  • 070200Z AUTO 35002KT CAVOK 14/10 Q1018 NOSIG
  • 070130Z AUTO 33002KT CAVOK 15/10 Q1018 NOSIG

TAF TAF LFOB
Valid from the 07 at 00:00 until the 08 at 00:00 UTC


062300Z 0700/0724 VRB02KT CAVOK
BECMG 0708/0711 12010KT
ATIS : +33 3 44 11 49 28



MET'MAP, your aeronautical weather chart ! - Copyright ORBIFLY December 2007 - Disclaimer

ORBIFLY MET'MAP TEAM :

Programming & Development : Alexandra Zaïnal
Concept & original design : Baudouin d'Aumeries
Assistance for programming : Marc-Olivier Méhu
Technical & hardware support : Manuel Goepfert

Contact : metmap@orbifly.com




SOURCES & CREDITS :

   NOAA